Ana Sayfa
METAR-TAF:

METAR-TAF

Havaalanları :

Hermosillo, Meksika

Enlem: 29-04N, Boylam: 110-57W, yükseklik: 211 m

Güncel hava durumu gözlemi

Rapor saat 14:42 UTC de 1 saat ve 4 dakika önce yapıldı.
Sakin rüzgar
Sıcaklık 27°C
Nem 11%
Basınç 1012 hPa
Görüş mesafesi: 16.1 km
Açık gökyüzü

METAR: MMHO 221442Z 00000KT 10SM SKC 27/M06 A2989 RMK SLP114 52016 913 HZY

Saat: 08:46 (15:46 UTC)

Tahmin

Rapor saat 05:28 UTC de 10 saat ve 18 dakika önce yapıldı.
Ayın 22'si saat 06 UTC'den ayın 23'si saat 06 UTC'ye kadar geçerli Tahmin
Rüzgar güneybatıdan 5 kt
Görüş mesafesi: 10 km
Açık gökyüzü
Ayın 22'si saat 1900 UTC'den
Rüzgar güney/güneybatıdan 10 kt
Görüş mesafesi: 10 km
Açık gökyüzü
Ayın 23'si saat 0000 UTC'den
Rüzgar güney/güneybatıdan 5 kt
Görüş mesafesi: 10 km

TAF: MMHO 220528Z 2206/2306 23005KT P6SM SKC FM221900 21010KT P6SM SKC FM230000 20005KT P6SM

4.000'den fazla havaalanı için hava durumu gözlemleri ve tahminleri (METAR ve TAF raporları).

Kullanılabilir istasyonlar harita üzerinde sarı ve kırmızı noktalarla gösterilir.

İstasyonun adını görmek için fareyi noktanın üzerinde gezdirin.

Sonrasında hava gözlem ve tahminlerini görmek için tıklayın.

Haritayı değiştirmek için: yaklaştırmak için siyah artı işaretli yeşil düğmeye ve uzaklaştırmak için de eksi işaretli düğmeye hızla tıklayın; bitişik haritalar için yeşil okları kullanın.


METAR-TAF: